Time;durP1;ratioP1;P1;durP2;ratioP2;P2;SDS_P1;SDS_P2;PMS_P1;PMS_P2;Temp;Humidity;BMP_temperature;BMP_pressure;BME280_temperature;BME280_humidity;BME280_pressure;Samples;Min_cycle;Max_cycle;Signal;HPM_P1;HPM_P2
2021/04/24 00:01:37;;;;;;;26.47;15.37;;;;;;;2.76;81.46;100933.44;1648598;86;25899;-76
2021/04/24 00:04:04;;;;;;;22.42;14.07;;;;;;;2.75;81.46;100926.13;1642248;86;25995;-75
2021/04/24 00:06:31;;;;;;;26.37;14.07;;;;;;;2.76;81.35;100933.44;1683164;83;25868;-75
2021/04/24 00:08:58;;;;;;;23.60;14.07;;;;;;;2.77;81.15;100935.89;1683072;83;25778;-75
2021/04/24 00:11:25;;;;;;;24.30;16.65;;;;;;;2.75;81.03;100931.29;1651903;84;25796;-76
2021/04/24 00:13:52;;;;;;;30.37;20.32;;;;;;;2.75;80.98;100934.34;1640971;86;25847;-75
2021/04/24 00:16:20;;;;;;;27.77;18.62;;;;;;;2.75;80.82;100933.05;1679565;83;25697;-76
2021/04/24 00:18:46;;;;;;;29.32;19.50;;;;;;;2.73;80.69;100934.45;1630250;86;26612;-75
2021/04/24 00:21:13;;;;;;;46.18;20.60;;;;;;;2.69;80.58;100938.62;1672564;84;25807;-75
2021/04/24 00:23:38;;;;;;;28.23;18.50;;;;;;;2.64;80.61;100932.45;1643600;86;25701;-75
2021/04/24 00:26:04;;;;;;;27.67;18.57;;;;;;;2.63;80.62;100935.50;1669796;84;25952;-75
2021/04/24 00:28:30;;;;;;;30.57;20.07;;;;;;;2.57;80.42;100931.22;1647860;86;25798;-76
2021/04/24 00:30:56;;;;;;;27.50;17.17;;;;;;;2.55;80.45;100933.06;1641914;86;26231;-75
2021/04/24 00:33:22;;;;;;;24.67;15.87;;;;;;;2.53;80.39;100931.86;1643081;86;25920;-76
2021/04/24 00:35:48;;;;;;;25.70;15.43;;;;;;;2.50;80.41;100932.06;1644401;86;35570;-75
2021/04/24 00:38:14;;;;;;;24.40;15.10;;;;;;;2.48;80.43;100927.45;1640646;86;25934;-76
2021/04/24 00:40:40;;;;;;;28.67;15.57;;;;;;;2.46;80.37;100924.64;1643964;86;25793;-75
2021/04/24 00:43:05;;;;;;;25.53;14.27;;;;;;;2.43;80.32;100931.64;1647468;86;25979;-75
2021/04/24 00:45:31;;;;;;;26.47;16.83;;;;;;;2.40;80.39;100929.70;1628928;86;25998;-76
2021/04/24 00:47:59;;;;;;;28.10;16.47;;;;;;;2.39;80.23;100921.14;1643830;86;34886;-76
2021/04/24 00:50:32;;;;;;;31.17;18.40;;;;;;;2.38;80.12;100927.70;1682735;83;25783;-74
2021/04/24 00:53:00;;;;;;;27.45;16.85;;;;;;;2.37;80.00;100929.46;1682541;83;25311;-76
2021/04/24 00:55:27;;;;;;;29.55;15.23;;;;;;;2.35;79.90;100929.19;1642054;86;26389;-76
2021/04/24 00:57:53;;;;;;;27.42;14.68;;;;;;;2.30;79.67;100936.39;1648515;86;26432;-77
2021/04/24 01:00:22;;;;;;;23.18;13.80;;;;;;;2.27;79.66;100934.83;1643449;86;25997;-77
2021/04/24 01:02:51;;;;;;;24.72;14.83;;;;;;;2.26;79.60;100928.47;1666237;84;25796;-78
2021/04/24 01:05:25;;;;;;;25.52;14.35;;;;;;;2.25;79.52;100925.06;1667376;84;25858;-77
2021/04/24 01:07:51;;;;;;;25.10;13.93;;;;;;;2.26;79.43;100930.58;1666942;84;25719;-75
2021/04/24 01:10:20;;;;;;;20.93;13.90;;;;;;;2.22;79.28;100925.27;1666660;84;25893;-76
2021/04/24 01:12:47;;;;;;;20.82;13.32;;;;;;;2.21;79.09;100934.76;1679799;83;25830;-76
2021/04/24 01:15:18;;;;;;;26.00;13.03;;;;;;;2.22;79.08;100926.55;1642552;86;25827;-76
2021/04/24 01:17:45;;;;;;;25.27;13.28;;;;;;;2.21;78.89;100930.89;1682709;83;25882;-76
2021/04/24 01:20:13;;;;;;;22.20;12.78;;;;;;;2.21;78.67;100927.49;1682960;83;26397;-76
2021/04/24 01:22:42;;;;;;;22.98;13.25;;;;;;;2.19;78.55;100925.47;1680614;83;25885;-76
2021/04/24 01:25:13;;;;;;;21.48;12.28;;;;;;;2.19;78.38;100928.05;1680588;83;25785;-76
2021/04/24 01:27:39;;;;;;;21.90;12.23;;;;;;;2.17;78.16;100925.55;1679812;83;25692;-76
2021/04/24 01:30:08;;;;;;;23.02;13.35;;;;;;;2.14;78.11;100923.17;1678715;83;25817;-76
2021/04/24 01:32:34;;;;;;;21.68;12.10;;;;;;;2.13;78.07;100920.70;1678666;83;26578;-76
2021/04/24 01:35:00;;;;;;;20.73;11.20;;;;;;;2.11;77.78;100926.41;1680123;83;25794;-76
2021/04/24 01:37:27;;;;;;;18.27;11.05;;;;;;;2.08;77.64;100919.70;1679322;83;25761;-76
2021/04/24 01:39:53;;;;;;;25.57;13.75;;;;;;;2.05;77.55;100916.02;1680544;83;26226;-75
2021/04/24 01:42:19;;;;;;;20.07;11.03;;;;;;;2.03;77.52;100921.73;1680701;83;25679;-75
2021/04/24 01:44:44;;;;;;;23.97;11.93;;;;;;;2.00;77.41;100925.80;1679950;83;25754;-76
2021/04/24 01:47:10;;;;;;;17.67;12.10;;;;;;;1.98;77.37;100927.63;1680367;83;30365;-76
2021/04/24 01:49:36;;;;;;;25.03;13.67;;;;;;;1.98;77.26;100921.19;1681243;83;35370;-76
2021/04/24 01:52:02;;;;;;;23.93;15.10;;;;;;;1.94;77.15;100932.63;1681183;83;25774;-76
2021/04/24 01:54:28;;;;;;;28.35;16.60;;;;;;;1.94;77.04;100917.98;1666418;85;25434;-75
2021/04/24 01:56:57;;;;;;;25.00;16.63;;;;;;;1.93;76.98;100923.22;1680469;83;26466;-75
2021/04/24 01:59:27;;;;;;;26.40;16.12;;;;;;;1.91;76.86;100919.90;1680343;83;25753;-76
2021/04/24 02:01:55;;;;;;;28.30;16.17;;;;;;;1.89;76.76;100925.64;1680288;83;25726;-75
2021/04/24 02:04:24;;;;;;;22.65;15.45;;;;;;;1.88;76.54;100924.81;1681078;83;25763;-75
2021/04/24 02:06:50;;;;;;;25.20;15.15;;;;;;;1.86;76.33;100921.50;1678911;83;25799;-77
2021/04/24 02:09:19;;;;;;;26.33;14.43;;;;;;;1.83;76.32;100922.98;1681194;83;26298;-76
2021/04/24 02:12:08;;;;;;;23.55;13.48;;;;;;;1.83;76.36;100924.27;1680663;83;25693;-76
2021/04/24 02:14:50;;;;;;;20.08;11.53;;;;;;;1.83;76.26;100922.13;1679280;83;25806;-76
2021/04/24 02:17:26;;;;;;;18.20;10.05;;;;;;;1.82;76.19;100916.62;1680499;83;25943;-74
2021/04/24 02:19:54;;;;;;;21.70;11.78;;;;;;;1.82;76.19;100916.62;1682186;83;25748;-77
2021/04/24 02:22:22;;;;;;;17.07;10.40;;;;;;;1.86;76.05;100920.20;1681052;83;25869;-77
2021/04/24 02:24:55;;;;;;;23.60;12.10;;;;;;;1.85;75.63;100921.58;1680809;83;25784;-75
2021/04/24 02:27:21;;;;;;;20.45;13.05;;;;;;;1.80;75.39;100922.31;1679359;83;26596;-76
2021/04/24 02:29:49;;;;;;;25.25;13.48;;;;;;;1.73;75.35;100921.88;1680888;83;25672;-76
2021/04/24 02:32:17;;;;;;;19.73;12.15;;;;;;;1.68;75.41;100919.58;1681739;83;25721;-76
2021/04/24 02:34:45;;;;;;;25.48;14.43;;;;;;;1.69;75.50;100921.69;1680276;83;26384;-77
2021/04/24 02:37:14;;;;;;;24.10;14.93;;;;;;;1.67;75.35;100921.80;1680525;83;25700;-76
2021/04/24 02:39:44;;;;;;;29.35;14.07;;;;;;;1.67;75.31;100927.42;1680905;83;25882;-76
2021/04/24 02:42:13;;;;;;;;;;;;;;;1.65;75.10;100930.08;1653016;86;25739;-76
2021/04/24 02:44:40;;;;;;;25.15;13.88;;;;;;;1.62;74.83;100916.56;1640962;85;25702;-75
2021/04/24 02:47:08;;;;;;;22.90;14.93;;;;;;;1.59;75.03;100926.59;1642594;86;26614;-76
2021/04/24 02:49:34;;;;;;;25.17;13.05;;;;;;;1.54;74.90;100915.27;1643437;86;25730;-76
2021/04/24 02:52:02;;;;;;;23.47;11.18;;;;;;;1.53;74.84;100919.24;1642303;86;26486;-76
2021/04/24 02:54:28;;;;;;;17.82;10.82;;;;;;;1.49;74.89;100927.59;1680288;83;25958;-76
2021/04/24 02:56:54;;;;;;;18.83;10.50;;;;;;;1.38;74.58;100909.39;1678705;84;25720;-76
2021/04/24 02:59:21;;;;;;;17.13;9.80;;;;;;;1.47;74.79;100922.16;1678334;84;26216;-75
2021/04/24 03:01:49;;;;;;;18.85;9.00;;;;;;;1.45;74.66;100917.12;1678416;84;25872;-76
2021/04/24 03:04:15;;;;;;;17.60;8.03;;;;;;;1.43;74.47;100922.81;1677756;84;25777;-76
2021/04/24 03:06:42;;;;;;;19.57;10.35;;;;;;;1.41;74.55;100923.36;1678326;84;25857;-76
2021/04/24 03:09:08;;;;;;;19.10;10.05;;;;;;;1.38;74.56;100919.69;1676193;84;25717;-76
2021/04/24 03:11:36;;;;;;;18.73;8.75;;;;;;;1.39;74.46;100925.66;1677059;84;26412;-76
2021/04/24 03:14:03;;;;;;;23.62;10.80;;;;;;;1.37;74.34;100919.33;1678019;84;25692;-76
2021/04/24 03:16:29;;;;;;;17.85;11.48;;;;;;;1.35;74.49;100916.48;1678378;84;25761;-76
2021/04/24 03:18:56;;;;;;;23.75;12.58;;;;;;;1.38;74.67;100922.27;1678635;84;25696;-76
2021/04/24 03:21:23;;;;;;;22.15;14.83;;;;;;;1.40;74.65;100917.03;1677563;84;25797;-76
2021/04/24 03:23:51;;;;;;;23.50;14.68;;;;;;;1.47;74.61;100922.16;1677485;84;25798;-76
2021/04/24 03:26:17;;;;;;;28.77;17.37;;;;;;;1.44;74.30;100927.50;1675143;84;25800;-76
2021/04/24 03:28:43;;;;;;;21.97;15.25;;;;;;;1.41;74.34;100922.08;1677261;84;25708;-76
2021/04/24 03:31:10;;;;;;;25.10;16.75;;;;;;;1.41;74.23;100926.41;1677019;84;25861;-76
2021/04/24 03:33:37;;;;;;;22.82;14.73;;;;;;;1.39;74.24;100933.39;1677255;84;25676;-76
2021/04/24 03:36:05;;;;;;;22.15;15.45;;;;;;;1.40;74.20;100926.05;1678331;84;25764;-76
2021/04/24 03:38:32;;;;;;;22.85;16.62;;;;;;;1.39;74.11;100922.66;1678122;84;25773;-77
2021/04/24 03:40:58;;;;;;;22.02;17.12;;;;;;;1.39;74.17;100924.38;1677948;84;25727;-76
2021/04/24 03:43:24;;;;;;;17.33;12.20;;;;;;;1.40;74.17;100926.05;1678547;84;25790;-76
2021/04/24 03:45:49;;;;;;;22.60;13.63;;;;;;;1.43;74.15;100925.39;1678811;84;25902;-75
2021/04/24 03:48:15;;;;;;;22.67;12.63;;;;;;;1.41;74.02;100927.23;1678017;84;26227;-76
2021/04/24 03:50:41;;;;;;;24.07;13.70;;;;;;;1.40;73.97;100924.30;1676398;84;31251;-75
2021/04/24 03:53:07;;;;;;;24.20;12.23;;;;;;;1.45;74.05;100929.18;1677674;84;35048;-76
2021/04/24 03:55:33;;;;;;;20.02;12.82;;;;;;;1.47;73.93;100930.75;1678618;84;25453;-76
2021/04/24 03:58:00;;;;;;;26.07;14.78;;;;;;;1.47;73.70;100935.05;1677627;84;25932;-75
2021/04/24 04:00:30;;;;;;;28.20;14.90;;;;;;;1.47;73.74;100930.75;1677649;84;25869;-76
2021/04/24 04:03:00;;;;;;;20.40;13.13;;;;;;;1.46;73.69;100930.36;1678383;84;25773;-76
2021/04/24 04:05:32;;;;;;;;;;;;;;;1.47;73.71;100929.89;1680023;84;25783;-76
2021/04/24 04:07:59;;;;;;;18.02;11.75;;;;;;;1.49;73.74;100928.88;1677260;83;25732;-76
2021/04/24 04:10:27;;;;;;;21.45;11.25;;;;;;;1.51;73.76;100928.80;1678259;84;25839;-76
2021/04/24 04:12:54;;;;;;;18.32;10.63;;;;;;;1.57;73.72;100927.60;1679046;84;25769;-75
2021/04/24 04:15:22;;;;;;;21.52;15.03;;;;;;;1.58;73.43;100926.67;1681081;84;25784;-76
2021/04/24 04:18:11;;;;;;;22.93;14.98;;;;;;;1.59;73.64;100928.34;1676883;84;25741;-76
2021/04/24 04:20:42;;;;;;;15.50;12.88;;;;;;;1.63;73.67;100929.80;1678209;84;26180;-76
2021/04/24 04:23:09;;;;;;;25.80;13.32;;;;;;;1.66;73.29;100930.43;1677878;84;25920;-76
2021/04/24 04:25:36;;;;;;;25.82;15.60;;;;;;;1.68;73.26;100935.04;1678815;84;45579;-76
2021/04/24 04:28:03;;;;;;;17.50;12.28;;;;;;;1.71;73.32;100934.84;1658266;84;25697;-76
2021/04/24 04:30:31;;;;;;;16.20;10.20;;;;;;;1.75;73.19;100938.91;1676729;84;25800;-76
2021/04/24 04:32:59;;;;;;;18.82;10.30;;;;;;;1.70;72.87;100939.64;1677345;84;25839;-77
2021/04/24 04:35:26;;;;;;;14.83;8.83;;;;;;;1.77;72.87;100944.80;1678570;84;25934;-76
2021/04/24 04:37:52;;;;;;;17.32;8.65;;;;;;;1.80;72.75;100952.81;1678247;84;25769;-77
2021/04/24 04:40:18;;;;;;;19.82;10.00;;;;;;;1.80;72.60;100956.67;1678082;84;25831;-76
2021/04/24 04:42:45;;;;;;;18.23;10.20;;;;;;;1.81;72.88;100949.30;1674593;84;25981;-76
2021/04/24 04:45:14;;;;;;;15.23;8.33;;;;;;;1.85;72.86;100948.17;1673944;84;25732;-73
2021/04/24 04:47:41;;;;;;;18.15;9.05;;;;;;;1.90;72.75;100947.43;1675549;84;25312;-72
2021/04/24 04:50:12;;;;;;;19.40;9.43;;;;;;;1.95;72.71;100953.14;1675866;84;26027;-73
2021/04/24 04:52:38;;;;;;;23.55;10.28;;;;;;;2.00;72.68;100954.97;1675933;84;25780;-76
2021/04/24 04:55:07;;;;;;;15.80;8.58;;;;;;;2.03;72.19;100957.82;1675911;84;25787;-77
2021/04/24 04:57:33;;;;;;;18.95;9.05;;;;;;;2.07;72.39;100955.41;1676534;84;25810;-77
2021/04/24 04:59:59;;;;;;;15.98;8.38;;;;;;;2.13;72.14;100952.94;1676108;84;25838;-76
2021/04/24 05:02:25;;;;;;;16.10;8.70;;;;;;;2.13;71.87;100951.17;1677998;84;26336;-76
2021/04/24 05:04:51;;;;;;;15.30;8.38;;;;;;;2.16;71.87;100952.73;1676336;84;25381;-76
2021/04/24 05:07:17;;;;;;;20.43;9.87;;;;;;;2.21;72.01;100950.70;1674609;84;29112;-77
2021/04/24 05:09:42;;;;;;;18.53;8.57;;;;;;;2.29;72.10;100956.20;1677284;84;25881;-76
2021/04/24 05:12:09;;;;;;;16.27;8.00;;;;;;;2.37;71.83;100956.98;1677706;84;25761;-72
2021/04/24 05:14:36;;;;;;;20.97;10.10;;;;;;;2.41;71.77;100945.56;1677754;84;25756;-73
2021/04/24 05:17:04;;;;;;;16.17;8.35;;;;;;;2.48;71.87;100953.72;1676184;84;25437;-73
2021/04/24 05:19:31;;;;;;;16.15;8.48;;;;;;;2.54;71.62;100950.77;1636818;85;25937;-77
2021/04/24 05:21:57;;;;;;;20.12;9.80;;;;;;;2.59;71.59;100958.58;1674898;84;25339;-77
2021/04/24 05:24:23;;;;;;;19.40;10.83;;;;;;;2.65;71.36;100955.59;1650693;85;25836;-77
2021/04/24 05:26:49;;;;;;;19.20;9.43;;;;;;;2.69;70.93;100948.47;1640119;86;25947;-72
2021/04/24 05:29:16;;;;;;;19.63;10.30;;;;;;;2.73;70.33;100963.28;1679009;83;31322;-77
2021/04/24 05:31:43;;;;;;;17.92;8.65;;;;;;;2.76;70.99;100963.94;1681995;83;25772;-76
2021/04/24 05:34:09;;;;;;;20.65;11.08;;;;;;;2.82;70.69;100955.78;1681790;83;25861;-73
2021/04/24 05:36:35;;;;;;;16.30;7.97;;;;;;;2.92;71.07;100957.31;1661928;84;25476;-73
2021/04/24 05:39:03;;;;;;;17.82;7.87;;;;;;;3.02;70.99;100960.92;1642513;86;25863;-76
2021/04/24 05:41:29;;;;;;;16.15;8.65;;;;;;;3.11;70.73;100954.34;1668358;83;25845;-76
2021/04/24 05:43:57;;;;;;;13.70;7.58;;;;;;;3.16;70.59;100956.13;1684541;83;25918;-72
2021/04/24 05:46:25;;;;;;;14.93;7.58;;;;;;;3.21;70.05;100961.82;1653258;85;25584;-73
2021/04/24 05:48:51;;;;;;;14.75;7.55;;;;;;;3.24;69.80;100953.86;1669045;84;25811;-73
2021/04/24 05:51:19;;;;;;;19.70;9.15;;;;;;;3.29;69.21;100954.85;1638300;86;25838;-73
2021/04/24 05:53:50;;;;;;;16.97;7.85;;;;;;;3.32;69.67;100959.34;1643959;86;25415;-72
2021/04/24 05:56:17;;;;;;;15.98;8.28;;;;;;;3.41;70.14;100948.87;1678475;83;26591;-76
2021/04/24 05:58:44;;;;;;;19.55;9.55;;;;;;;3.54;70.17;100954.02;1680551;83;25864;-72
2021/04/24 06:01:10;;;;;;;19.00;8.85;;;;;;;3.65;70.35;100948.92;1682337;83;25746;-73
2021/04/24 06:03:36;;;;;;;14.07;7.67;;;;;;;3.77;69.75;100955.03;1678534;83;25894;-76
2021/04/24 06:06:03;;;;;;;17.73;7.97;;;;;;;3.81;68.64;100957.75;1679201;83;26570;-77
2021/04/24 06:08:29;;;;;;;15.88;7.95;;;;;;;3.83;69.00;100957.18;1679746;83;25784;-77
2021/04/24 06:10:55;;;;;;;23.13;8.97;;;;;;;3.88;68.87;100960.75;1681484;83;25754;-77
2021/04/24 06:13:22;;;;;;;16.37;6.93;;;;;;;3.92;68.86;100960.88;1678218;83;25338;-77
2021/04/24 06:15:49;;;;;;;16.25;8.13;;;;;;;3.98;68.70;100972.94;1679600;83;25885;-72
2021/04/24 06:18:16;;;;;;;15.80;6.83;;;;;;;4.06;68.41;100968.49;1661979;85;25873;-77
2021/04/24 06:20:43;;;;;;;14.25;7.03;;;;;;;4.15;68.17;100982.56;1679455;83;25773;-77
2021/04/24 06:23:10;;;;;;;15.70;7.55;;;;;;;4.25;68.07;100982.72;1680369;83;26696;-77
2021/04/24 06:25:36;;;;;;;15.88;7.70;;;;;;;4.31;68.10;100985.72;1633108;83;57651;-81
2021/04/24 06:28:02;;;;;;;16.80;8.30;;;;;;;4.39;68.23;100987.30;1630517;86;25680;-81
2021/04/24 06:30:28;;;;;;;14.58;8.38;;;;;;;4.44;68.11;100991.64;1626480;88;25665;-81
2021/04/24 06:32:56;;;;;;;18.27;9.15;;;;;;;4.54;68.04;100994.89;1626810;88;25820;-81
2021/04/24 06:35:23;;;;;;;14.40;7.90;;;;;;;4.65;68.18;100997.05;1626887;87;25650;-83
2021/04/24 06:37:49;;;;;;;13.95;7.10;;;;;;;4.77;67.30;100989.33;1618287;88;25374;-84
2021/04/24 06:40:17;;;;;;;13.38;6.70;;;;;;;4.85;66.54;100988.30;1627465;88;25669;-84
2021/04/24 06:42:43;;;;;;;13.13;6.10;;;;;;;4.88;66.19;100982.45;1614885;88;25350;-84
2021/04/24 06:45:12;;;;;;;14.40;6.95;;;;;;;4.95;65.48;100990.58;1602188;88;25698;-83
2021/04/24 06:47:38;;;;;;;14.98;6.85;;;;;;;4.99;64.59;100991.17;1625624;88;25677;-84
2021/04/24 06:50:08;;;;;;;10.63;5.78;;;;;;;5.03;66.11;100975.77;1626275;87;26083;-84
2021/04/24 06:52:34;;;;;;;15.65;6.65;;;;;;;5.15;65.97;100981.80;1602508;89;25759;-83
2021/04/24 06:55:00;;;;;;;11.73;6.53;;;;;;;5.30;65.78;100978.88;1627438;88;26010;-84
2021/04/24 06:57:26;;;;;;;11.65;5.87;;;;;;;5.34;65.24;100976.41;1631121;86;25452;-85
2021/04/24 06:59:53;;;;;;;9.70;5.58;;;;;;;5.40;65.78;100979.47;1626689;88;25684;-82
2021/04/24 07:02:20;;;;;;;11.35;5.40;;;;;;;5.54;64.92;100974.09;1629322;87;25302;-82
2021/04/24 07:04:45;;;;;;;9.93;5.30;;;;;;;5.64;64.75;100980.67;1639736;87;26443;-82
2021/04/24 07:07:11;;;;;;;13.43;6.00;;;;;;;5.66;64.78;100975.73;1639689;87;25685;-81
2021/04/24 07:09:38;;;;;;;11.13;4.90;;;;;;;5.71;63.60;100976.68;1606858;88;25396;-81
2021/04/24 07:12:05;;;;;;;14.03;5.28;;;;;;;5.69;63.86;100970.30;1628189;86;25747;-81
2021/04/24 07:14:31;;;;;;;14.25;5.65;;;;;;;5.74;63.35;100975.14;1628258;86;25218;-82
2021/04/24 07:16:56;;;;;;;11.43;6.20;;;;;;;5.84;64.40;100968.30;1628224;86;25464;-82
2021/04/24 07:19:22;;;;;;;11.53;5.60;;;;;;;5.92;63.55;100974.17;1628207;88;25677;-82
2021/04/24 07:21:48;;;;;;;10.83;6.00;;;;;;;5.95;63.90;100966.20;1628406;87;25366;-82
2021/04/24 07:24:14;;;;;;;12.57;5.17;;;;;;;6.04;64.08;100967.25;1628245;87;28332;-82
2021/04/24 07:26:40;;;;;;;9.18;4.70;;;;;;;6.10;63.62;100960.27;1628294;88;25299;-82
2021/04/24 07:29:07;;;;;;;11.90;5.35;;;;;;;6.14;63.45;100966.89;1628223;88;25724;-82
2021/04/24 07:31:33;;;;;;;12.60;5.30;;;;;;;6.17;63.53;100967.45;1628389;87;25763;-82
2021/04/24 07:33:59;;;;;;;8.93;5.00;;;;;;;6.26;64.06;100972.39;1628249;88;25339;-82
2021/04/24 07:36:27;;;;;;;9.55;5.10;;;;;;;6.36;63.97;100963.41;1628369;87;25259;-82
2021/04/24 07:38:52;;;;;;;10.90;4.60;;;;;;;6.48;63.60;100969.37;1628204;88;25424;-82
2021/04/24 07:41:18;;;;;;;11.83;5.70;;;;;;;6.56;63.29;100976.08;1629368;87;25393;-84
2021/04/24 07:43:44;;;;;;;10.70;5.27;;;;;;;6.54;63.45;100972.30;1629164;87;25288;-83
2021/04/24 07:46:10;;;;;;;10.60;5.37;;;;;;;6.60;63.24;100968.38;1607814;87;25755;-81
2021/04/24 07:48:35;;;;;;;9.63;5.60;;;;;;;6.63;63.19;100970.27;1607623;87;30095;-81
2021/04/24 07:51:01;;;;;;;10.77;5.80;;;;;;;6.69;63.65;100968.95;1606457;89;25594;-81
2021/04/24 07:53:27;;;;;;;10.23;5.07;;;;;;;6.73;63.67;100976.01;1607281;87;26141;-82
2021/04/24 07:55:53;;;;;;;7.57;4.33;;;;;;;6.73;63.66;100968.22;1607738;88;25640;-82
2021/04/24 07:58:19;;;;;;;9.37;5.10;;;;;;;6.80;63.78;100970.67;1607724;87;25694;-82
2021/04/24 08:00:45;;;;;;;11.43;5.33;;;;;;;6.86;63.55;100978.78;1607717;87;30837;-83
2021/04/24 08:03:11;;;;;;;13.28;5.22;;;;;;;6.90;63.41;100972.84;1607732;87;25512;-84
2021/04/24 08:05:37;;;;;;;10.93;5.73;;;;;;;6.94;63.60;100976.03;1607669;87;25479;-84
2021/04/24 08:08:03;;;;;;;12.53;4.90;;;;;;;6.98;63.02;100964.42;1602736;88;25440;-84
2021/04/24 08:10:29;;;;;;;16.10;6.47;;;;;;;7.00;62.84;100978.12;1582661;89;25792;-84
2021/04/24 08:13:02;;;;;;;10.75;5.50;;;;;;;7.08;62.97;100979.61;1607694;88;25972;-84
2021/04/24 08:15:28;;;;;;;7.40;3.95;;;;;;;7.15;63.25;100974.72;1607707;87;25274;-85
2021/04/24 08:17:55;;;;;;;10.18;4.47;;;;;;;7.16;61.97;100977.69;1607939;89;26465;-84
2021/04/24 08:20:20;;;;;;;9.48;4.45;;;;;;;7.18;62.56;100970.59;1607753;87;25596;-83
2021/04/24 08:22:46;;;;;;;9.17;5.17;;;;;;;7.28;62.04;100975.34;1608031;87;25900;-83
2021/04/24 08:25:13;;;;;;;9.63;4.70;;;;;;;7.30;61.65;100971.66;1607948;87;30847;-82
2021/04/24 08:27:41;;;;;;;9.03;4.97;;;;;;;7.32;60.92;100965.87;1582344;87;25718;-82
2021/04/24 08:30:10;;;;;;;15.88;5.80;;;;;;;7.42;62.07;100968.98;1600772;87;25831;-83
2021/04/24 08:32:37;;;;;;;10.40;4.90;;;;;;;7.47;61.67;100957.23;1607585;87;25456;-82
2021/04/24 08:35:05;;;;;;;8.33;4.47;;;;;;;7.56;61.21;100963.46;1607642;88;25640;-82
2021/04/24 08:37:30;;;;;;;9.25;4.85;;;;;;;7.65;60.75;100962.66;1607636;87;25634;-82
2021/04/24 08:39:56;;;;;;;12.00;5.13;;;;;;;7.71;60.44;100957.41;1607659;87;27878;-82
2021/04/24 08:42:22;;;;;;;9.13;4.15;;;;;;;7.73;60.70;100963.31;1607699;87;25720;-83
2021/04/24 08:44:51;;;;;;;12.70;4.20;;;;;;;7.79;59.71;100963.59;1607600;87;25582;-83
2021/04/24 08:47:20;;;;;;;7.67;4.15;;;;;;;7.88;59.70;100968.97;1607689;87;25745;-82
2021/04/24 08:49:47;;;;;;;11.25;4.90;;;;;;;7.98;60.75;100969.83;1605334;88;25668;-82
2021/04/24 08:52:13;;;;;;;9.68;4.37;;;;;;;8.04;59.41;100961.48;1602920;88;25489;-83
2021/04/24 08:54:39;;;;;;;12.00;4.75;;;;;;;8.03;59.67;100968.95;1603063;88;25734;-82
2021/04/24 08:57:05;;;;;;;8.15;4.22;;;;;;;8.08;59.60;100968.08;1589792;88;25780;-82
2021/04/24 08:59:31;;;;;;;7.78;4.67;;;;;;;8.19;59.58;100960.14;1581550;89;25439;-82
2021/04/24 09:01:57;;;;;;;8.88;4.45;;;;;;;8.15;58.17;100967.05;1605319;87;25763;-82
2021/04/24 09:04:23;;;;;;;11.90;4.03;;;;;;;8.11;57.45;100955.27;1582623;89;29735;-82
2021/04/24 09:06:49;;;;;;;8.70;4.17;;;;;;;8.08;56.69;100962.05;1582546;89;26199;-82
2021/04/24 09:09:15;;;;;;;5.97;3.40;;;;;;;8.00;57.10;100958.81;1584048;88;25640;-82
2021/04/24 09:11:47;;;;;;;8.03;2.97;;;;;;;8.02;55.45;100954.30;1606909;87;25403;-83
2021/04/24 09:14:17;;;;;;;6.33;3.40;;;;;;;7.99;55.55;100950.64;1607472;87;25592;-82
2021/04/24 09:16:44;;;;;;;8.98;3.67;;;;;;;8.09;55.19;100945.47;1606373;88;25851;-82
2021/04/24 09:19:33;;;;;;;8.80;4.70;;;;;;;8.27;56.61;100946.46;1606388;87;25721;-82
2021/04/24 09:22:23;;;;;;;7.60;3.70;;;;;;;8.42;56.43;100942.51;1583633;88;25807;-82
2021/04/24 09:24:52;;;;;;;6.33;3.40;;;;;;;8.57;55.34;100937.73;1606024;87;25815;-82
2021/04/24 09:27:19;;;;;;;9.55;3.85;;;;;;;8.72;54.63;100943.33;1607605;87;25679;-82
2021/04/24 09:29:44;;;;;;;13.58;5.08;;;;;;;8.75;52.89;100937.84;1584045;88;25344;-82
2021/04/24 09:32:18;;;;;;;9.67;4.00;;;;;;;8.70;54.70;100937.42;1607801;87;26237;-83
2021/04/24 09:34:50;;;;;;;8.68;4.30;;;;;;;8.71;53.01;100937.79;1607608;87;25771;-83
2021/04/24 09:37:22;;;;;;;5.58;3.52;;;;;;;8.89;54.76;100935.28;1607587;87;25699;-82
2021/04/24 09:39:54;;;;;;;7.60;3.27;;;;;;;8.99;54.91;100937.39;1607670;87;25459;-91
2021/04/24 09:42:37;;;;;;;7.60;3.85;;;;;;;9.14;55.10;100925.20;1607681;89;25294;-82
2021/04/24 09:45:14;;;;;;;8.50;3.87;;;;;;;9.35;54.64;100924.52;1603876;87;25665;-83
2021/04/24 09:47:43;;;;;;;10.58;4.17;;;;;;;9.46;51.80;100928.25;1579211;88;25770;-82
2021/04/24 09:50:17;;;;;;;7.13;3.20;;;;;;;9.38;53.43;100921.63;1596751;88;25380;-81
2021/04/24 09:52:44;;;;;;;5.85;3.22;;;;;;;9.42;51.43;100925.61;1603120;88;25778;-82
2021/04/24 09:55:15;;;;;;;6.62;3.10;;;;;;;9.42;51.41;100919.58;1606429;87;25452;-82
2021/04/24 09:57:41;;;;;;;5.70;3.20;;;;;;;9.37;50.81;100925.70;1602759;87;26487;-82
2021/04/24 10:00:15;;;;;;;6.87;3.77;;;;;;;9.35;50.94;100920.61;1606223;87;25759;-82
2021/04/24 10:02:44;;;;;;;7.78;3.47;;;;;;;9.25;51.87;100911.53;1606822;87;25212;-82
2021/04/24 10:05:18;;;;;;;5.72;3.20;;;;;;;9.22;52.18;100918.80;1607821;87;25740;-82
2021/04/24 10:07:50;;;;;;;10.18;4.62;;;;;;;9.32;52.43;100911.28;1607602;87;25397;-81
2021/04/24 10:10:31;;;;;;;5.58;3.05;;;;;;;9.44;51.96;100903.27;1607792;87;25654;-83
2021/04/24 10:13:00;;;;;;;6.72;2.52;;;;;;;9.60;50.05;100909.17;1607831;87;25778;-84
2021/04/24 10:15:39;;;;;;;5.85;3.02;;;;;;;9.73;50.43;100907.87;1607970;87;25373;-83
2021/04/24 10:18:08;;;;;;;5.22;2.42;;;;;;;9.83;48.99;100897.87;1607793;87;25794;-83
2021/04/24 10:20:36;;;;;;;5.95;2.50;;;;;;;9.79;45.28;100903.84;1607935;87;25275;-83
2021/04/24 10:23:07;;;;;;;3.55;2.30;;;;;;;9.84;46.07;100898.20;1607179;87;25763;-84
2021/04/24 10:25:34;;;;;;;4.87;2.27;;;;;;;9.90;46.56;100904.13;1607798;87;25239;-84
2021/04/24 10:28:00;;;;;;;8.35;2.83;;;;;;;10.03;46.92;100902.48;1607770;87;25776;-84
2021/04/24 10:30:27;;;;;;;5.35;2.90;;;;;;;10.06;45.96;100903.48;1607787;87;25415;-84
2021/04/24 10:32:54;;;;;;;5.42;3.55;;;;;;;9.95;47.61;100898.80;1608434;87;25200;-86
2021/04/24 10:35:21;;;;;;;6.08;2.62;;;;;;;9.85;46.10;100911.12;1608121;87;26389;-84
2021/04/24 10:37:50;;;;;;;6.62;3.22;;;;;;;9.70;46.23;100897.72;1607489;87;25635;-85
2021/04/24 10:40:18;;;;;;;10.50;4.22;;;;;;;9.67;49.03;100898.02;1584245;87;25744;-87
2021/04/24 10:42:50;;;;;;;9.28;4.12;;;;;;;9.64;50.81;100897.00;1608075;87;25306;-86
2021/04/24 10:45:34;;;;;;;7.17;4.30;;;;;;;9.60;51.23;100889.11;1607918;87;25322;-85
2021/04/24 10:48:02;;;;;;;8.00;2.77;;;;;;;9.56;51.36;100902.95;1607871;87;25654;-87
2021/04/24 10:50:44;;;;;;;6.15;2.60;;;;;;;9.52;47.42;100894.23;1604083;88;25426;-88
2021/04/24 10:53:26;;;;;;;6.53;2.08;;;;;;;9.49;48.08;100904.97;1606346;87;25393;-87
2021/04/24 10:55:55;;;;;;;5.42;1.82;;;;;;;9.53;46.14;100891.50;1607900;87;25660;-84
2021/04/24 10:58:23;;;;;;;3.27;2.25;;;;;;;9.55;42.23;100884.84;1608015;87;25274;-86
2021/04/24 11:00:56;;;;;;;2.95;1.50;;;;;;;9.61;41.14;100885.55;1607962;87;25827;-85
2021/04/24 11:03:52;;;;;;;3.37;1.60;;;;;;;9.71;39.91;100889.41;1607788;87;25942;-86
2021/04/24 11:06:23;;;;;;;3.35;1.45;;;;;;;9.71;41.40;100898.08;1607699;87;25282;-86
2021/04/24 11:08:56;;;;;;;3.70;1.67;;;;;;;9.71;38.58;100900.69;1595189;87;25763;-86
2021/04/24 11:11:22;;;;;;;4.00;1.95;;;;;;;9.64;37.62;100911.84;1593083;88;25475;-86
2021/04/24 11:13:56;;;;;;;5.90;2.57;;;;;;;9.63;40.23;100903.66;1606622;88;25469;-85
2021/04/24 11:16:31;;;;;;;6.78;3.00;;;;;;;9.63;44.45;100929.30;1582931;87;25303;-86
2021/04/24 11:18:52;;;;;;;5.92;2.87;;;;;;;9.50;46.31;100911.36;1605761;88;25356;-84
2021/04/24 11:21:25;;;;;;;5.08;2.83;;;;;;;9.33;46.09;100916.86;1605151;87;33714;-87
2021/04/24 11:23:59;;;;;;;6.10;2.70;;;;;;;9.17;46.87;100917.12;1606530;87;25663;-84
2021/04/24 11:26:33;;;;;;;5.40;2.55;;;;;;;8.98;47.48;100901.87;1606334;88;25855;-82
2021/04/24 11:29:17;;;;;;;5.70;2.58;;;;;;;8.75;46.41;100908.34;1606455;87;25920;-87